createdAt,value
2022-09-21T00:00:08.740Z,11.22
2022-09-21T00:02:38.831Z,11.17
2022-09-21T00:05:12.557Z,11.26
2022-09-21T00:07:42.566Z,11.27
2022-09-21T00:10:14.070Z,11.27
2022-09-21T00:12:48.477Z,11.27
2022-09-21T00:15:20.631Z,11.17
2022-09-21T00:17:51.224Z,11.04
2022-09-21T00:20:24.868Z,11.01
2022-09-21T00:22:59.273Z,11.04
2022-09-21T00:25:29.249Z,11.07
2022-09-21T00:27:59.375Z,11.03
2022-09-21T00:30:31.579Z,10.95
2022-09-21T00:33:01.640Z,11.01
2022-09-21T00:35:43.297Z,10.96
2022-09-21T00:38:13.467Z,11.14
2022-09-21T00:40:47.339Z,11.23
2022-09-21T00:43:19.912Z,11.24
2022-09-21T00:45:53.304Z,11.31
2022-09-21T00:48:28.146Z,11.39
2022-09-21T00:51:08.561Z,11.42
2022-09-21T00:53:41.040Z,11.45
2022-09-21T00:56:18.566Z,11.48
2022-09-21T00:58:53.691Z,11.52
2022-09-21T01:01:24.955Z,11.53
2022-09-21T01:04:00.825Z,11.44
2022-09-21T01:06:39.935Z,11.41
2022-09-21T01:09:15.015Z,11.29
2022-09-21T01:12:01.058Z,11.21
2022-09-21T01:14:56.750Z,11.08
2022-09-21T01:17:40.999Z,11.15
2022-09-21T01:21:02.175Z,11.20
2022-09-21T01:23:58.419Z,11.19
2022-09-21T01:26:45.836Z,11.19
2022-09-21T01:29:24.157Z,11.21
2022-09-21T01:32:01.843Z,11.20
2022-09-21T01:34:40.292Z,10.98
2022-09-21T01:37:21.435Z,10.90
2022-09-21T01:39:56.125Z,10.85
2022-09-21T01:42:31.692Z,10.90
2022-09-21T01:45:08.410Z,10.84
2022-09-21T01:47:46.160Z,10.78
2022-09-21T01:50:20.556Z,10.65
2022-09-21T01:52:59.267Z,10.49
2022-09-21T01:55:33.768Z,10.48
2022-09-21T01:58:11.276Z,10.40
2022-09-21T02:00:48.187Z,10.43
2022-09-21T02:03:27.503Z,10.52
2022-09-21T02:06:02.315Z,10.54
2022-09-21T02:08:34.985Z,10.45
2022-09-21T02:11:08.760Z,10.47
2022-09-21T02:13:43.544Z,10.48
2022-09-21T02:16:40.659Z,10.46
2022-09-21T02:19:18.170Z,10.41
2022-09-21T02:22:03.989Z,10.40
2022-09-21T02:24:47.305Z,10.36
2022-09-21T02:27:28.539Z,10.32
2022-09-21T02:30:11.517Z,10.31
2022-09-21T02:32:56.593Z,10.27
2022-09-21T02:35:37.821Z,10.22
2022-09-21T02:38:14.210Z,10.20
2022-09-21T02:40:54.221Z,10.17
2022-09-21T02:43:33.293Z,10.14
2022-09-21T02:46:12.753Z,10.16
2022-09-21T02:48:52.628Z,10.13
2022-09-21T02:51:29.747Z,10.13
2022-09-21T02:54:03.804Z,10.13
2022-09-21T02:56:35.065Z,10.10
2022-09-21T02:59:08.184Z,10.05
2022-09-21T03:01:39.129Z,10.01
2022-09-21T03:04:16.870Z,9.99
2022-09-21T03:06:49.386Z,9.96
2022-09-21T03:09:25.372Z,9.95
2022-09-21T03:11:55.450Z,9.92
2022-09-21T03:14:31.481Z,9.91
2022-09-21T03:17:03.802Z,9.90
2022-09-21T03:19:39.568Z,9.89
2022-09-21T03:22:12.716Z,9.85
2022-09-21T03:24:50.215Z,9.77
2022-09-21T03:27:25.543Z,9.73
2022-09-21T03:29:58.839Z,9.72
2022-09-21T03:32:32.085Z,9.72
2022-09-21T03:35:05.086Z,9.71
2022-09-21T03:37:41.228Z,9.70
2022-09-21T03:40:13.920Z,9.66
2022-09-21T03:42:44.973Z,9.64
2022-09-21T03:45:16.579Z,9.61
2022-09-21T03:47:51.798Z,9.59
2022-09-21T03:50:28.609Z,9.59
2022-09-21T03:52:58.738Z,9.61
2022-09-21T03:55:32.726Z,9.59
2022-09-21T03:58:06.695Z,9.59
2022-09-21T04:00:40.209Z,9.61
2022-09-21T04:03:14.186Z,9.63
2022-09-21T04:05:49.627Z,9.63
2022-09-21T04:08:24.131Z,9.65
2022-09-21T04:10:56.504Z,9.67
2022-09-21T04:13:29.315Z,9.67
2022-09-21T04:15:59.635Z,9.68
2022-09-21T04:18:35.275Z,9.72
2022-09-21T04:21:09.465Z,9.74
2022-09-21T04:23:39.486Z,9.79
2022-09-21T04:26:19.467Z,9.84
2022-09-21T04:28:53.079Z,9.88
2022-09-21T04:31:26.738Z,9.85
2022-09-21T04:34:01.991Z,9.87
2022-09-21T04:36:36.761Z,9.88
2022-09-21T04:39:08.090Z,9.85
2022-09-21T04:41:42.276Z,9.78
2022-09-21T04:44:12.298Z,9.81
2022-09-21T04:46:44.842Z,9.82
2022-09-21T04:49:18.952Z,9.83
2022-09-21T04:51:51.420Z,9.84
2022-09-21T04:54:23.749Z,9.88
2022-09-21T04:56:53.825Z,9.91
2022-09-21T04:59:23.927Z,9.93
2022-09-21T05:01:54.017Z,9.99
2022-09-21T05:04:24.085Z,10.03
2022-09-21T05:06:58.711Z,10.09
2022-09-21T05:09:42.598Z,10.14
2022-09-21T05:12:12.658Z,10.20
2022-09-21T05:14:44.204Z,10.26
2022-09-21T05:17:14.857Z,10.30
2022-09-21T05:19:44.936Z,10.37
2022-09-21T05:22:20.539Z,10.38
2022-09-21T05:24:50.624Z,10.43
2022-09-21T05:27:22.928Z,10.51
2022-09-21T05:29:58.111Z,10.58
2022-09-21T05:32:36.549Z,10.62
2022-09-21T05:35:18.932Z,10.67
2022-09-21T05:38:02.782Z,10.69
2022-09-21T05:40:35.127Z,10.52
2022-09-21T05:43:06.364Z,10.40
2022-09-21T05:45:37.436Z,10.31
2022-09-21T05:48:18.294Z,10.33
2022-09-21T05:50:59.654Z,10.29
2022-09-21T05:53:55.824Z,10.20
2022-09-21T05:56:41.896Z,10.20
2022-09-21T05:59:45.162Z,10.29
2022-09-21T06:02:32.819Z,10.19
2022-09-21T06:05:04.805Z,10.26
2022-09-21T06:07:34.822Z,10.28
2022-09-21T06:10:08.685Z,10.31
2022-09-21T06:12:38.789Z,10.40
2022-09-21T06:15:13.846Z,10.35
2022-09-21T06:17:46.149Z,10.59
2022-09-21T06:20:16.322Z,10.79
2022-09-21T06:22:46.362Z,10.73
2022-09-21T06:25:20.267Z,10.82
2022-09-21T06:27:52.053Z,10.90
2022-09-21T06:30:22.213Z,10.80
2022-09-21T06:32:52.302Z,10.61
2022-09-21T06:35:22.572Z,10.66
2022-09-21T06:37:55.085Z,10.78
2022-09-21T06:40:27.982Z,10.88
2022-09-21T06:43:00.674Z,11.12
2022-09-21T06:45:31.715Z,11.43
2022-09-21T06:48:01.607Z,11.60
2022-09-21T06:50:31.848Z,12.14
2022-09-21T06:53:03.315Z,12.53
2022-09-21T06:55:36.295Z,12.68
2022-09-21T06:58:10.665Z,12.82
2022-09-21T07:00:46.020Z,13.13
2022-09-21T07:03:16.679Z,12.88
2022-09-21T07:05:48.548Z,12.83
2022-09-21T07:11:16.491Z,12.62
2022-09-21T07:13:46.650Z,12.67
2022-09-21T07:16:22.123Z,12.77
2022-09-21T07:18:54.089Z,12.80
2022-09-21T07:21:27.066Z,12.80
2022-09-21T07:23:57.341Z,12.85
2022-09-21T07:26:31.767Z,12.91
2022-09-21T07:29:03.562Z,13.09
2022-09-21T07:31:33.683Z,13.38
2022-09-21T07:34:03.808Z,13.77
2022-09-21T07:36:33.903Z,14.08
2022-09-21T07:39:07.410Z,14.20
2022-09-21T07:41:44.816Z,14.33
2022-09-21T07:44:20.861Z,14.68
2022-09-21T07:46:53.165Z,14.40
2022-09-21T07:49:25.205Z,14.50
2022-09-21T07:51:56.125Z,14.55
2022-09-21T07:54:27.622Z,14.67
2022-09-21T07:57:21.812Z,14.72
2022-09-21T07:59:51.856Z,14.80
2022-09-21T08:02:22.276Z,14.64
2022-09-21T08:04:53.746Z,14.87
2022-09-21T08:07:24.711Z,16.33
2022-09-21T08:09:55.680Z,16.67
2022-09-21T08:12:35.456Z,18.93
2022-09-21T08:15:25.096Z,18.85
2022-09-21T08:18:02.928Z,20.14
2022-09-21T08:20:35.731Z,19.97
2022-09-21T08:23:07.208Z,18.40
2022-09-21T08:25:37.330Z,18.15
2022-09-21T08:28:10.305Z,17.70
2022-09-21T08:30:40.599Z,17.37
2022-09-21T08:33:11.097Z,17.15
2022-09-21T08:35:41.185Z,17.02
2022-09-21T08:38:11.276Z,16.94
2022-09-21T08:40:44.086Z,16.78
2022-09-21T08:43:30.065Z,16.97
2022-09-21T08:46:02.785Z,18.11
2022-09-21T08:48:40.329Z,17.56
2022-09-21T08:51:16.053Z,18.25
2022-09-21T08:53:55.065Z,18.71
2022-09-21T08:56:53.263Z,18.65
2022-09-21T08:59:23.425Z,20.10
2022-09-21T09:02:01.549Z,20.20
2022-09-21T09:04:52.886Z,19.37
2022-09-21T09:07:55.194Z,19.90
2022-09-21T09:10:42.384Z,21.23
2022-09-21T09:13:34.778Z,22.42
2022-09-21T09:16:21.595Z,21.33
2022-09-21T09:19:00.644Z,20.86
2022-09-21T09:21:41.426Z,22.98
2022-09-21T09:24:19.181Z,22.43
2022-09-21T09:27:00.273Z,20.72
2022-09-21T09:29:40.468Z,19.36
2022-09-21T09:32:21.743Z,21.44
2022-09-21T09:35:01.158Z,23.00
2022-09-21T09:37:39.567Z,23.57
2022-09-21T09:40:11.765Z,22.57
2022-09-21T09:42:54.723Z,23.19
2022-09-21T09:45:53.079Z,23.74
2022-09-21T09:49:04.424Z,25.16
2022-09-21T09:51:37.688Z,23.24
2022-09-21T09:54:10.407Z,22.78
2022-09-21T09:56:40.616Z,23.73
2022-09-21T09:59:21.434Z,24.52
2022-09-21T10:02:06.451Z,25.16
2022-09-21T10:04:39.475Z,24.98
2022-09-21T10:07:09.527Z,24.01
2022-09-21T10:09:41.816Z,23.95
2022-09-21T10:12:27.638Z,24.79
2022-09-21T10:15:01.590Z,24.20
2022-09-21T10:17:33.541Z,22.99
2022-09-21T10:20:14.070Z,23.76
2022-09-21T10:22:48.178Z,24.90
2022-09-21T10:25:21.340Z,25.91
2022-09-21T10:27:54.041Z,24.58
2022-09-21T10:30:38.895Z,24.81
2022-09-21T10:33:23.223Z,23.30
2022-09-21T10:35:57.052Z,22.31
2022-09-21T10:38:31.061Z,21.70
2022-09-21T10:41:01.207Z,22.76
2022-09-21T10:43:43.191Z,22.82
2022-09-21T10:46:15.048Z,22.79
2022-09-21T10:48:48.966Z,21.87
2022-09-21T10:51:34.120Z,21.29
2022-09-21T10:54:11.972Z,20.57
2022-09-21T10:56:58.796Z,19.80
2022-09-21T10:59:31.940Z,19.61
2022-09-21T11:02:03.998Z,21.41
2022-09-21T11:04:44.919Z,23.35
2022-09-21T11:07:27.398Z,24.93
2022-09-21T11:10:06.796Z,25.60
2022-09-21T11:12:52.136Z,23.47
2022-09-21T11:15:34.038Z,22.27
2022-09-21T11:18:15.715Z,25.19
2022-09-21T11:20:58.129Z,27.02
2022-09-21T11:23:46.958Z,28.85
2022-09-21T11:26:26.734Z,29.87
2022-09-21T11:29:07.089Z,29.62
2022-09-21T11:31:55.814Z,27.75
2022-09-21T11:34:47.090Z,27.14
2022-09-21T11:37:35.567Z,28.11
2022-09-21T11:40:35.776Z,26.30
2022-09-21T11:43:36.107Z,24.99
2022-09-21T11:46:20.390Z,24.15
2022-09-21T11:49:17.055Z,26.18
2022-09-21T11:52:06.486Z,24.77
2022-09-21T11:55:18.510Z,24.49
2022-09-21T11:57:59.514Z,25.96
2022-09-21T12:00:38.825Z,28.26
2022-09-21T12:03:54.682Z,29.49
2022-09-21T12:06:44.003Z,30.52
2022-09-21T12:09:54.598Z,32.08
2022-09-21T12:12:37.393Z,31.23
2022-09-21T12:15:15.592Z,28.56
2022-09-21T12:17:57.968Z,27.01
2022-09-21T12:20:48.462Z,25.80
2022-09-21T12:23:24.846Z,24.57
2022-09-21T12:26:00.811Z,24.06
2022-09-21T12:28:40.767Z,23.84
2022-09-21T12:31:19.018Z,22.99
2022-09-21T12:33:55.105Z,22.81
2022-09-21T12:36:32.287Z,25.71
2022-09-21T12:39:12.016Z,27.96
2022-09-21T12:41:53.925Z,29.44
2022-09-21T12:44:52.224Z,30.01
2022-09-21T12:47:28.656Z,31.31
2022-09-21T12:50:08.499Z,32.10
2022-09-21T12:52:38.646Z,29.54
2022-09-21T12:55:35.222Z,28.28
2022-09-21T12:58:15.826Z,26.79
2022-09-21T13:01:00.511Z,25.59
2022-09-21T13:03:37.319Z,24.39
2022-09-21T13:06:38.761Z,23.79
2022-09-21T13:09:15.513Z,23.17
2022-09-21T13:11:57.387Z,22.58
2022-09-21T13:14:32.989Z,22.16
2022-09-21T13:17:10.464Z,21.44
2022-09-21T13:19:40.731Z,20.93
2022-09-21T13:22:20.031Z,20.60
2022-09-21T13:25:04.056Z,20.42
2022-09-21T13:28:09.362Z,20.51
2022-09-21T13:30:45.166Z,21.18
2022-09-21T13:33:41.897Z,23.03
2022-09-21T13:36:35.436Z,23.96
2022-09-21T13:39:20.005Z,23.03
2022-09-21T13:42:02.846Z,22.33
2022-09-21T13:44:46.880Z,21.91
2022-09-21T13:47:18.700Z,21.39
2022-09-21T13:49:58.455Z,20.85
2022-09-21T13:52:43.239Z,20.50
2022-09-21T13:55:29.553Z,20.10
2022-09-21T13:58:04.728Z,19.77
2022-09-21T14:00:40.392Z,19.57
2022-09-21T14:03:25.175Z,19.44
2022-09-21T14:06:04.851Z,19.33
2022-09-21T14:08:38.967Z,19.31
2022-09-21T14:11:17.866Z,19.33
2022-09-21T14:13:52.014Z,19.32
2022-09-21T14:17:00.655Z,19.32
2022-09-21T14:20:04.998Z,19.95
2022-09-21T14:22:44.741Z,19.75
2022-09-21T14:25:53.429Z,19.79
2022-09-21T14:28:37.673Z,19.89
2022-09-21T14:31:20.154Z,20.26
2022-09-21T14:33:55.100Z,19.91
2022-09-21T14:36:34.677Z,19.57
2022-09-21T14:39:10.166Z,19.36
2022-09-21T14:41:44.183Z,19.42
2022-09-21T14:44:23.867Z,19.29
2022-09-21T14:47:10.761Z,18.97
2022-09-21T14:50:11.758Z,18.71
2022-09-21T14:53:34.550Z,18.52
2022-09-21T14:56:39.098Z,18.36
2022-09-21T14:59:39.068Z,18.31
2022-09-21T15:02:21.115Z,18.22
2022-09-21T15:05:24.309Z,20.62
2022-09-21T15:08:23.322Z,22.73
2022-09-21T15:11:03.372Z,24.45
2022-09-21T15:13:56.764Z,25.61
2022-09-21T15:16:38.636Z,26.48
2022-09-21T15:19:26.286Z,27.32
2022-09-21T15:21:59.060Z,27.74
2022-09-21T15:24:40.275Z,28.23
2022-09-21T15:27:15.869Z,26.98
2022-09-21T15:29:51.613Z,26.43
2022-09-21T15:32:36.733Z,26.38
2022-09-21T15:35:16.258Z,24.60
2022-09-21T15:37:47.925Z,23.49
2022-09-21T15:40:23.413Z,22.61
2022-09-21T15:43:04.730Z,21.87
2022-09-21T15:45:55.891Z,21.35
2022-09-21T15:48:26.953Z,20.82
2022-09-21T15:51:15.971Z,20.28
2022-09-21T15:53:50.880Z,19.85
2022-09-21T15:56:25.765Z,19.50
2022-09-21T15:59:08.931Z,19.14
2022-09-21T16:01:48.114Z,18.63
2022-09-21T16:04:21.964Z,18.47
2022-09-21T16:07:04.906Z,18.25
2022-09-21T16:09:43.698Z,18.06
2022-09-21T16:12:42.572Z,17.94
2022-09-21T16:15:20.085Z,17.77
2022-09-21T16:18:03.021Z,17.64
2022-09-21T16:20:48.491Z,17.41
2022-09-21T16:23:26.806Z,17.26
2022-09-21T16:26:02.185Z,17.15
2022-09-21T16:28:42.419Z,17.16
2022-09-21T16:31:33.528Z,17.16
2022-09-21T16:34:39.363Z,17.13
2022-09-21T16:37:28.850Z,17.07
2022-09-21T16:40:01.463Z,17.04
2022-09-21T16:42:34.444Z,16.92
2022-09-21T16:45:12.922Z,16.77
2022-09-21T16:47:43.161Z,16.65
2022-09-21T16:50:19.119Z,16.49
2022-09-21T16:52:52.561Z,16.39
2022-09-21T16:55:26.934Z,16.34
2022-09-21T16:58:00.396Z,16.26
2022-09-21T17:00:37.997Z,16.22
2022-09-21T17:03:08.136Z,16.18
2022-09-21T17:05:40.867Z,16.09
2022-09-21T17:08:13.936Z,16.05
2022-09-21T17:10:48.951Z,16.02
2022-09-21T17:13:20.671Z,16.02
2022-09-21T17:15:52.720Z,16.00
2022-09-21T17:18:22.948Z,15.95
2022-09-21T17:20:55.844Z,15.91
2022-09-21T17:23:29.287Z,15.87
2022-09-21T17:26:01.206Z,15.83
2022-09-21T17:28:32.377Z,15.79
2022-09-21T17:31:02.882Z,15.72
2022-09-21T17:33:36.179Z,15.69
2022-09-21T17:36:09.998Z,15.63
2022-09-21T17:38:40.092Z,15.58
2022-09-21T17:41:24.680Z,15.53
2022-09-21T17:44:06.086Z,15.46
2022-09-21T17:46:45.040Z,15.40
2022-09-21T17:49:16.396Z,15.33
2022-09-21T17:52:02.218Z,15.27
2022-09-21T17:54:33.336Z,15.19
2022-09-21T17:57:18.479Z,15.07
2022-09-21T17:59:53.853Z,14.94
2022-09-21T18:02:27.694Z,14.84
2022-09-21T18:05:22.975Z,14.73
2022-09-21T18:07:57.002Z,14.58
2022-09-21T18:10:30.258Z,14.50
2022-09-21T18:13:21.614Z,14.41
2022-09-21T18:16:08.156Z,14.27
2022-09-21T18:18:47.427Z,14.17
2022-09-21T18:21:24.848Z,14.06
2022-09-21T18:24:18.053Z,14.01
2022-09-21T18:26:49.292Z,13.99
2022-09-21T18:29:40.858Z,13.92
2022-09-21T18:32:39.757Z,13.82
2022-09-21T18:35:22.944Z,13.75
2022-09-21T18:38:12.884Z,13.65
2022-09-21T18:41:04.389Z,13.51
2022-09-21T18:43:48.765Z,13.45
2022-09-21T18:46:26.237Z,13.41
2022-09-21T18:49:09.590Z,13.31
2022-09-21T18:51:47.418Z,13.26
2022-09-21T18:54:23.395Z,13.24
2022-09-21T18:56:57.239Z,13.19
2022-09-21T18:59:31.863Z,13.16
2022-09-21T19:02:03.421Z,13.16
2022-09-21T19:04:37.547Z,13.16
2022-09-21T19:07:20.847Z,13.11
2022-09-21T19:10:04.426Z,13.07
2022-09-21T19:12:59.219Z,12.99
2022-09-21T19:15:59.654Z,12.94
2022-09-21T19:18:44.057Z,12.89
2022-09-21T19:21:28.277Z,12.87
2022-09-21T19:24:10.659Z,12.82
2022-09-21T19:27:04.955Z,12.76
2022-09-21T19:29:56.440Z,12.72
2022-09-21T19:32:38.254Z,12.69
2022-09-21T19:35:26.341Z,12.63
2022-09-21T19:38:01.596Z,12.62
2022-09-21T19:40:35.024Z,12.57
2022-09-21T19:43:20.846Z,12.54
2022-09-21T19:46:09.320Z,12.50
2022-09-21T19:48:46.397Z,12.49
2022-09-21T19:51:23.045Z,12.43
2022-09-21T19:54:11.753Z,12.40
2022-09-21T19:57:02.527Z,12.33
2022-09-21T19:59:46.251Z,12.30
2022-09-21T20:02:28.786Z,12.24
2022-09-21T20:05:01.835Z,12.25
2022-09-21T20:07:44.496Z,12.20
2022-09-21T20:10:45.341Z,12.13
2022-09-21T20:13:31.295Z,12.10
2022-09-21T20:16:07.910Z,12.05
2022-09-21T20:18:50.724Z,12.01
2022-09-21T20:21:23.927Z,11.97
2022-09-21T20:24:02.112Z,11.92
2022-09-21T20:26:35.150Z,11.89
2022-09-21T20:29:05.989Z,11.86
2022-09-21T20:31:39.245Z,11.84
2022-09-21T20:34:16.265Z,11.84
2022-09-21T20:36:47.023Z,11.81
2022-09-21T20:39:17.202Z,11.80
2022-09-21T20:41:48.772Z,11.80
2022-09-21T20:44:22.118Z,11.76
2022-09-21T20:46:53.135Z,11.71
2022-09-21T20:49:25.845Z,11.70
2022-09-21T20:51:55.880Z,11.71
2022-09-21T20:54:28.422Z,11.68
2022-09-21T20:56:58.453Z,11.68
2022-09-21T20:59:28.503Z,11.64
2022-09-21T21:01:58.638Z,11.63
2022-09-21T21:04:32.593Z,11.58
2022-09-21T21:07:06.068Z,11.55
2022-09-21T21:09:36.489Z,11.53
2022-09-21T21:12:07.152Z,11.53
2022-09-21T21:14:39.985Z,11.54
2022-09-21T21:17:10.066Z,11.52
2022-09-21T21:19:42.902Z,11.51
2022-09-21T21:22:14.771Z,11.50
2022-09-21T21:24:51.392Z,11.49
2022-09-21T21:27:25.583Z,11.50
2022-09-21T21:29:58.681Z,11.47
2022-09-21T21:32:38.133Z,11.46
2022-09-21T21:35:12.098Z,11.47
2022-09-21T21:37:42.130Z,11.43
2022-09-21T21:40:14.202Z,11.40
2022-09-21T21:42:47.163Z,11.39
2022-09-21T21:45:18.224Z,11.35
2022-09-21T21:47:52.246Z,11.31
2022-09-21T21:50:26.376Z,11.27
2022-09-21T21:53:03.637Z,11.27
2022-09-21T21:55:33.955Z,11.24
2022-09-21T21:58:04.634Z,11.22
2022-09-21T22:00:37.304Z,11.19
2022-09-21T22:03:07.519Z,11.16
2022-09-21T22:05:42.422Z,11.15
2022-09-21T22:08:12.928Z,11.15
2022-09-21T22:10:46.008Z,11.14
2022-09-21T22:13:17.993Z,11.13
2022-09-21T22:15:48.284Z,11.12
2022-09-21T22:18:20.414Z,11.08
2022-09-21T22:20:53.285Z,11.02
2022-09-21T22:23:25.981Z,11.01
2022-09-21T22:25:55.994Z,11.01
2022-09-21T22:28:26.172Z,10.99
2022-09-21T22:30:56.188Z,11.00
2022-09-21T22:33:33.034Z,10.99
2022-09-21T22:36:17.432Z,10.99
2022-09-21T22:38:49.720Z,10.96
2022-09-21T22:41:29.062Z,10.92
2022-09-21T22:44:01.424Z,10.93
2022-09-21T22:46:35.533Z,10.89
2022-09-21T22:49:08.113Z,10.86
2022-09-21T22:51:44.146Z,10.84
2022-09-21T22:54:14.178Z,10.82
2022-09-21T22:56:44.157Z,10.78
2022-09-21T22:59:15.913Z,10.76
2022-09-21T23:01:46.371Z,10.76
2022-09-21T23:04:17.258Z,10.73
2022-09-21T23:06:52.446Z,10.74
2022-09-21T23:09:24.286Z,10.72
2022-09-21T23:11:55.557Z,10.72
2022-09-21T23:14:28.738Z,10.72
2022-09-21T23:17:01.398Z,10.72
2022-09-21T23:19:32.141Z,10.71
2022-09-21T23:22:07.384Z,10.71
2022-09-21T23:24:37.450Z,10.71
2022-09-21T23:27:08.060Z,10.70
2022-09-21T23:29:40.196Z,10.70
2022-09-21T23:32:10.171Z,10.69
2022-09-21T23:34:40.181Z,10.70
2022-09-21T23:37:12.888Z,10.68
2022-09-21T23:39:42.913Z,10.70
2022-09-21T23:42:12.963Z,10.73
2022-09-21T23:44:44.301Z,10.73
2022-09-21T23:47:14.629Z,10.72
2022-09-21T23:49:44.706Z,10.80
2022-09-21T23:52:17.413Z,10.86
2022-09-21T23:54:48.257Z,10.88
2022-09-21T23:57:18.358Z,10.89
2022-09-21T23:59:53.012Z,10.87
